createdAt,value
2023-05-15T00:01:26.910Z,25.20
2023-05-15T00:03:55.216Z,26.30
2023-05-15T00:06:23.677Z,24.97
2023-05-15T00:08:51.884Z,26.40
2023-05-15T00:11:20.220Z,25.17
2023-05-15T00:13:48.442Z,24.37
2023-05-15T00:16:18.443Z,26.10
2023-05-15T00:18:46.899Z,25.43
2023-05-15T00:21:15.069Z,25.63
2023-05-15T00:23:43.208Z,23.37
2023-05-15T00:26:11.465Z,24.83
2023-05-15T00:28:39.650Z,25.87
2023-05-15T00:31:08.641Z,25.23
2023-05-15T00:33:38.181Z,25.00
2023-05-15T00:36:06.640Z,24.30
2023-05-15T00:38:34.814Z,26.30
2023-05-15T00:41:03.396Z,26.30
2023-05-15T00:43:31.942Z,24.90
2023-05-15T00:46:00.855Z,26.07
2023-05-15T00:48:29.512Z,27.97
2023-05-15T00:50:59.182Z,28.13
2023-05-15T00:53:28.540Z,26.70
2023-05-15T00:55:58.387Z,27.87
2023-05-15T00:58:28.660Z,28.87
2023-05-15T01:00:57.087Z,31.83
2023-05-15T01:03:25.530Z,33.77
2023-05-15T01:05:53.735Z,34.70
2023-05-15T01:08:28.196Z,36.17
2023-05-15T01:10:57.226Z,34.97
2023-05-15T01:13:25.737Z,34.20
2023-05-15T01:15:54.221Z,36.93
2023-05-15T01:18:22.462Z,36.77
2023-05-15T01:21:03.701Z,37.97
2023-05-15T01:23:40.530Z,37.93
2023-05-15T01:26:34.690Z,37.47
2023-05-15T01:29:06.562Z,36.17
2023-05-15T01:31:36.941Z,38.07
2023-05-15T01:34:07.380Z,36.77
2023-05-15T01:36:39.376Z,36.60
2023-05-15T01:39:08.881Z,39.83
2023-05-15T01:41:38.527Z,40.07
2023-05-15T01:44:09.080Z,37.37
2023-05-15T01:46:40.225Z,38.20
2023-05-15T01:49:11.036Z,38.53
2023-05-15T01:51:39.859Z,38.83
2023-05-15T01:54:08.572Z,36.73
2023-05-15T01:56:37.629Z,39.23
2023-05-15T01:59:06.374Z,39.43
2023-05-15T02:01:36.615Z,37.57
2023-05-15T02:04:05.861Z,38.00
2023-05-15T02:06:34.964Z,38.77
2023-05-15T02:09:08.714Z,38.40
2023-05-15T02:11:36.950Z,38.07
2023-05-15T02:14:06.324Z,38.47
2023-05-15T02:16:35.889Z,37.60
2023-05-15T02:19:04.169Z,38.63
2023-05-15T02:21:32.409Z,38.00
2023-05-15T02:24:00.606Z,36.73
2023-05-15T02:26:33.296Z,37.73
2023-05-15T02:29:08.367Z,38.80
2023-05-15T02:31:42.270Z,36.07
2023-05-15T02:34:13.486Z,35.83
2023-05-15T02:36:43.172Z,38.33
2023-05-15T02:39:12.942Z,36.60
2023-05-15T02:41:41.562Z,38.87
2023-05-15T02:44:10.423Z,38.17
2023-05-15T02:46:41.350Z,39.67
2023-05-15T02:49:09.858Z,40.27
2023-05-15T02:51:38.381Z,41.07
2023-05-15T02:54:08.789Z,40.20
2023-05-15T02:56:36.915Z,40.50
2023-05-15T02:59:05.174Z,38.97
2023-05-15T03:01:33.446Z,40.90
2023-05-15T03:04:03.037Z,39.83
2023-05-15T03:06:31.608Z,40.53
2023-05-15T03:08:59.768Z,40.17
2023-05-15T03:11:27.948Z,39.83
2023-05-15T03:13:56.105Z,40.20
2023-05-15T03:16:24.364Z,40.17
2023-05-15T03:18:52.617Z,39.60
2023-05-15T03:21:22.206Z,38.93
2023-05-15T03:23:50.362Z,41.13
2023-05-15T03:26:18.536Z,40.90
2023-05-15T03:28:46.728Z,41.70
2023-05-15T03:31:15.408Z,41.80
2023-05-15T03:33:45.611Z,39.93
2023-05-15T03:36:13.780Z,40.10
2023-05-15T03:38:44.288Z,40.53
2023-05-15T03:41:12.520Z,40.40
2023-05-15T03:43:40.744Z,41.40
2023-05-15T03:46:08.945Z,42.97
2023-05-15T03:48:37.129Z,40.23
2023-05-15T03:51:05.410Z,41.63
2023-05-15T03:53:33.582Z,42.00
2023-05-15T03:56:03.445Z,41.73
2023-05-15T03:58:32.033Z,40.87
2023-05-15T04:01:00.283Z,39.53
2023-05-15T04:03:28.498Z,42.23
2023-05-15T04:05:56.704Z,40.13
2023-05-15T04:08:24.865Z,42.30
2023-05-15T04:10:53.100Z,41.83
2023-05-15T04:13:22.613Z,44.50
2023-05-15T04:15:50.789Z,41.87
2023-05-15T04:18:18.957Z,42.27
2023-05-15T04:20:47.138Z,41.20
2023-05-15T04:23:15.334Z,43.40
2023-05-15T04:25:46.488Z,44.03
2023-05-15T04:28:14.670Z,43.80
2023-05-15T04:30:44.187Z,43.93
2023-05-15T04:33:12.409Z,42.80
2023-05-15T04:35:40.855Z,42.70
2023-05-15T04:38:09.057Z,42.00
2023-05-15T04:40:37.207Z,42.20
2023-05-15T04:43:05.867Z,40.50
2023-05-15T04:45:34.079Z,41.50
2023-05-15T04:48:03.663Z,39.10
2023-05-15T04:50:31.939Z,38.30
2023-05-15T04:53:00.144Z,37.33
2023-05-15T04:55:28.326Z,37.37
2023-05-15T04:57:56.488Z,38.97
2023-05-15T05:00:24.961Z,37.13
2023-05-15T05:02:53.149Z,39.00
2023-05-15T05:05:22.749Z,39.67
2023-05-15T05:07:51.987Z,38.33
2023-05-15T05:10:20.152Z,38.23
2023-05-15T05:12:48.348Z,38.57
2023-05-15T05:15:16.546Z,38.37
2023-05-15T05:17:44.754Z,38.87
2023-05-15T05:20:13.651Z,38.90
2023-05-15T05:22:43.198Z,39.13
2023-05-15T05:25:11.749Z,38.00
2023-05-15T05:27:39.930Z,38.17
2023-05-15T05:30:08.807Z,37.80
2023-05-15T05:32:37.054Z,37.87
2023-05-15T05:35:05.708Z,37.83
2023-05-15T05:37:33.931Z,38.07
2023-05-15T05:40:05.797Z,37.63
2023-05-15T05:42:34.050Z,38.37
2023-05-15T05:45:02.219Z,36.37
2023-05-15T05:47:30.445Z,39.53
2023-05-15T05:49:58.625Z,40.20
2023-05-15T05:52:26.762Z,37.90
2023-05-15T05:54:54.969Z,40.13
2023-05-15T05:57:24.529Z,39.90
2023-05-15T05:59:52.750Z,39.73
2023-05-15T06:02:20.988Z,39.70
2023-05-15T06:04:49.166Z,39.10
2023-05-15T06:07:17.580Z,36.13
2023-05-15T06:09:48.291Z,39.20
2023-05-15T06:12:16.470Z,39.50
2023-05-15T06:14:46.100Z,38.17
2023-05-15T06:17:14.453Z,36.83
2023-05-15T06:19:42.692Z,38.07
2023-05-15T06:22:10.872Z,37.53
2023-05-15T06:24:39.029Z,38.07
2023-05-15T06:27:07.306Z,37.47
2023-05-15T06:29:35.706Z,36.50
2023-05-15T06:32:05.422Z,36.40
2023-05-15T06:34:33.671Z,38.57
2023-05-15T06:37:01.917Z,37.93
2023-05-15T06:39:30.125Z,39.13
2023-05-15T06:42:01.196Z,41.20
2023-05-15T06:44:33.439Z,39.33
2023-05-15T06:47:07.817Z,38.70
2023-05-15T06:49:47.501Z,40.30
2023-05-15T06:52:17.542Z,36.90
2023-05-15T06:54:48.695Z,36.43
2023-05-15T06:57:19.361Z,34.57
2023-05-15T06:59:47.864Z,33.00
2023-05-15T07:02:20.052Z,31.87
2023-05-15T07:04:50.236Z,29.17
2023-05-15T07:07:18.434Z,29.13
2023-05-15T07:09:48.260Z,26.80
2023-05-15T07:12:16.622Z,27.87
2023-05-15T07:14:44.765Z,26.50
2023-05-15T07:17:12.996Z,26.93
2023-05-15T07:19:41.158Z,25.90
2023-05-15T07:22:10.755Z,24.17
2023-05-15T07:24:40.623Z,24.17
2023-05-15T07:27:08.908Z,26.37
2023-05-15T07:29:37.061Z,26.60
2023-05-15T07:32:05.731Z,25.97
2023-05-15T07:34:33.978Z,27.70
2023-05-15T07:37:02.513Z,26.77
2023-05-15T07:39:32.051Z,25.63
2023-05-15T07:42:00.765Z,24.67
2023-05-15T07:44:28.945Z,27.53
2023-05-15T07:46:57.433Z,25.07
2023-05-15T07:49:25.609Z,25.30
2023-05-15T07:51:53.797Z,24.70
2023-05-15T07:54:21.977Z,22.50
2023-05-15T07:56:51.877Z,22.87
2023-05-15T07:59:20.114Z,21.05
2023-05-15T08:01:48.345Z,23.20
2023-05-15T08:04:16.645Z,21.73
2023-05-15T08:06:44.872Z,20.08
2023-05-15T08:09:13.077Z,20.05
2023-05-15T08:11:41.279Z,18.85
2023-05-15T08:14:12.434Z,17.83
2023-05-15T08:16:42.277Z,19.13
2023-05-15T08:19:10.574Z,21.33
2023-05-15T08:21:39.269Z,21.33
2023-05-15T08:24:07.708Z,20.58
2023-05-15T08:26:35.925Z,21.88
2023-05-15T08:29:04.172Z,23.75
2023-05-15T08:31:33.704Z,20.80
2023-05-15T08:34:01.955Z,18.73
2023-05-15T08:36:30.230Z,24.77
2023-05-15T08:38:58.751Z,24.73
2023-05-15T08:41:40.133Z,19.45
2023-05-15T08:44:10.473Z,20.00
2023-05-15T08:46:40.202Z,19.20
2023-05-15T08:49:10.732Z,20.30
2023-05-15T08:51:39.752Z,17.35
2023-05-15T08:54:08.214Z,16.23
2023-05-15T08:56:36.674Z,15.88
2023-05-15T08:59:05.528Z,16.92
2023-05-15T09:01:34.395Z,16.25
2023-05-15T09:04:04.059Z,17.52
2023-05-15T09:06:32.790Z,16.65
2023-05-15T09:09:03.353Z,17.42
2023-05-15T09:11:31.751Z,16.50
2023-05-15T09:14:00.841Z,18.50
2023-05-15T09:16:29.201Z,15.18
2023-05-15T09:18:57.760Z,15.52
2023-05-15T09:21:27.822Z,16.67
2023-05-15T09:23:56.861Z,14.43
2023-05-15T09:26:25.789Z,15.80
2023-05-15T09:29:03.639Z,15.73
2023-05-15T09:31:32.270Z,16.88
2023-05-15T09:34:01.830Z,17.98
2023-05-15T09:36:32.578Z,16.70
2023-05-15T09:39:01.260Z,16.10
2023-05-15T09:41:29.741Z,14.48
2023-05-15T09:43:57.957Z,13.38
2023-05-15T09:46:26.322Z,14.52
2023-05-15T09:48:56.406Z,12.75
2023-05-15T09:51:24.926Z,16.33
2023-05-15T09:53:54.919Z,15.03
2023-05-15T09:56:23.165Z,14.80
2023-05-15T09:58:55.471Z,14.37
2023-05-15T10:01:24.310Z,14.47
2023-05-15T10:03:59.855Z,15.70
2023-05-15T10:06:28.024Z,15.53
2023-05-15T10:08:58.440Z,16.07
2023-05-15T10:11:27.182Z,14.67
2023-05-15T10:13:55.452Z,16.17
2023-05-15T10:16:24.151Z,17.67
2023-05-15T10:18:53.370Z,19.60
2023-05-15T10:21:22.963Z,17.00
2023-05-15T10:23:52.350Z,15.57
2023-05-15T10:26:25.586Z,15.37
2023-05-15T10:28:54.289Z,15.87
2023-05-15T10:31:22.572Z,14.20
2023-05-15T10:33:51.493Z,15.37
2023-05-15T10:36:20.567Z,15.67
2023-05-15T10:38:49.497Z,17.77
2023-05-15T10:41:18.857Z,18.17
2023-05-15T10:43:48.529Z,18.67
2023-05-15T10:46:18.209Z,18.07
2023-05-15T10:48:46.602Z,16.80
2023-05-15T10:51:18.260Z,18.10
2023-05-15T10:53:46.724Z,17.17
2023-05-15T10:56:16.501Z,18.90
2023-05-15T10:58:49.612Z,14.50
2023-05-15T11:01:28.293Z,16.27
2023-05-15T11:04:11.919Z,18.23
2023-05-15T11:06:40.890Z,18.13
2023-05-15T11:09:28.050Z,17.50
2023-05-15T11:11:57.477Z,18.90
2023-05-15T11:14:27.900Z,19.03
2023-05-15T11:17:06.731Z,20.57
2023-05-15T11:19:39.454Z,19.13
2023-05-15T11:22:21.288Z,18.57
2023-05-15T11:24:51.080Z,19.43
2023-05-15T11:27:20.268Z,18.40
2023-05-15T11:30:22.116Z,20.40
2023-05-15T11:32:52.886Z,20.37
2023-05-15T11:35:22.833Z,19.50
2023-05-15T11:37:51.936Z,19.50
2023-05-15T11:40:24.573Z,21.40
2023-05-15T11:43:02.781Z,21.93
2023-05-15T11:45:31.873Z,21.30
2023-05-15T11:48:03.433Z,20.40
2023-05-15T11:50:32.522Z,21.03
2023-05-15T11:53:03.207Z,19.77
2023-05-15T11:55:32.511Z,21.80
2023-05-15T11:58:01.018Z,22.83
2023-05-15T12:00:29.401Z,19.80
2023-05-15T12:02:57.695Z,20.67
2023-05-15T12:05:27.381Z,22.37
2023-05-15T12:07:55.601Z,21.27
2023-05-15T12:10:23.910Z,21.17
2023-05-15T12:12:52.311Z,24.40
2023-05-15T12:15:20.517Z,24.33
2023-05-15T12:17:48.735Z,22.87
2023-05-15T12:20:18.514Z,22.70
2023-05-15T12:22:48.130Z,23.10
2023-05-15T12:25:17.677Z,22.93
2023-05-15T12:27:45.996Z,23.30
2023-05-15T12:30:15.498Z,22.90
2023-05-15T12:32:44.106Z,22.73
2023-05-15T12:35:12.887Z,21.50
2023-05-15T12:37:41.104Z,24.87
2023-05-15T12:40:12.054Z,21.40
2023-05-15T12:42:40.865Z,19.87
2023-05-15T12:45:14.203Z,20.13
2023-05-15T12:47:42.583Z,19.83
2023-05-15T12:50:17.646Z,20.70
2023-05-15T12:52:49.381Z,20.07
2023-05-15T12:55:19.703Z,19.30
2023-05-15T12:57:47.915Z,17.07
2023-05-15T13:00:16.565Z,18.43
2023-05-15T13:02:45.678Z,17.43
2023-05-15T13:05:13.996Z,16.03
2023-05-15T13:07:43.352Z,15.37
2023-05-15T13:10:14.251Z,17.87
2023-05-15T13:12:45.837Z,21.23
2023-05-15T13:15:25.029Z,20.67
2023-05-15T13:17:59.270Z,20.77
2023-05-15T13:20:27.911Z,24.07
2023-05-15T13:22:56.199Z,22.90
2023-05-15T13:25:24.346Z,21.50
2023-05-15T13:27:54.686Z,21.93
2023-05-15T13:30:23.007Z,21.13
2023-05-15T13:32:52.553Z,21.63
2023-05-15T13:35:23.005Z,22.63
2023-05-15T13:37:51.434Z,24.33
2023-05-15T13:40:19.714Z,23.43
2023-05-15T13:42:47.881Z,23.27
2023-05-15T13:45:17.844Z,21.37
2023-05-15T13:47:46.440Z,22.10
2023-05-15T13:50:15.352Z,19.57
2023-05-15T13:52:44.009Z,21.27
2023-05-15T13:55:12.588Z,19.83
2023-05-15T13:57:41.423Z,18.00
2023-05-15T14:00:13.156Z,17.93
2023-05-15T14:02:43.977Z,17.47
2023-05-15T14:05:13.309Z,17.50
2023-05-15T14:07:41.816Z,17.23
2023-05-15T14:10:10.434Z,15.90
2023-05-15T14:12:39.624Z,15.57
2023-05-15T14:15:08.326Z,16.00
2023-05-15T14:17:36.537Z,17.03
2023-05-15T14:20:06.605Z,16.70
2023-05-15T14:22:35.051Z,14.97
2023-05-15T14:25:04.022Z,16.27
2023-05-15T14:27:32.189Z,15.50
2023-05-15T14:30:00.421Z,14.83
2023-05-15T14:32:28.666Z,15.70
2023-05-15T14:34:59.731Z,16.33
2023-05-15T14:37:29.459Z,17.20
2023-05-15T14:39:57.644Z,17.73
2023-05-15T14:42:27.186Z,16.93
2023-05-15T14:44:55.427Z,18.73
2023-05-15T14:47:25.250Z,18.53
2023-05-15T14:49:53.458Z,19.43
2023-05-15T14:52:21.681Z,18.77
2023-05-15T14:55:04.673Z,18.93
2023-05-15T14:57:36.650Z,18.80
2023-05-15T15:00:06.317Z,18.53
2023-05-15T15:02:34.774Z,18.63
2023-05-15T15:05:04.361Z,20.30
2023-05-15T15:07:32.546Z,20.60
2023-05-15T15:10:02.118Z,19.70
2023-05-15T15:12:30.600Z,18.27
2023-05-15T15:14:58.804Z,18.80
2023-05-15T15:17:27.771Z,17.30
2023-05-15T15:19:56.613Z,18.63
2023-05-15T15:22:24.782Z,18.03
2023-05-15T15:24:52.918Z,17.60
2023-05-15T15:27:22.633Z,18.10
2023-05-15T15:29:50.927Z,19.73
2023-05-15T15:32:19.117Z,20.77
2023-05-15T15:34:47.275Z,21.27
2023-05-15T15:37:15.423Z,20.13
2023-05-15T15:39:43.592Z,20.60
2023-05-15T15:42:11.732Z,20.23
2023-05-15T15:44:41.252Z,20.87
2023-05-15T15:47:09.514Z,20.30
2023-05-15T15:49:37.687Z,18.33
2023-05-15T15:52:05.929Z,19.73
2023-05-15T15:54:34.105Z,19.17
2023-05-15T15:57:02.260Z,20.70
2023-05-15T15:59:30.457Z,20.53
2023-05-15T16:01:59.990Z,19.80
2023-05-15T16:04:28.145Z,20.37
2023-05-15T16:06:56.325Z,20.00
2023-05-15T16:09:24.497Z,21.10
2023-05-15T16:11:52.777Z,20.53
2023-05-15T16:14:21.342Z,20.90
2023-05-15T16:16:49.551Z,21.77
2023-05-15T16:19:19.417Z,20.90
2023-05-15T16:21:49.244Z,23.13
2023-05-15T16:24:17.695Z,26.43
2023-05-15T16:26:45.918Z,24.40
2023-05-15T16:29:14.137Z,29.90
2023-05-15T16:31:42.418Z,27.87
2023-05-15T16:34:10.697Z,28.90
2023-05-15T16:36:40.210Z,25.73
2023-05-15T16:39:08.430Z,24.63
2023-05-15T16:41:36.666Z,22.60
2023-05-15T16:44:09.352Z,20.57
2023-05-15T16:46:37.533Z,19.80
2023-05-15T16:49:05.807Z,19.60
2023-05-15T16:51:33.947Z,18.10
2023-05-15T16:54:03.530Z,17.50
2023-05-15T16:56:31.721Z,21.60
2023-05-15T16:58:59.878Z,18.30
2023-05-15T17:01:28.339Z,21.60
2023-05-15T17:03:56.724Z,14.67
2023-05-15T17:06:25.047Z,13.87
2023-05-15T17:08:53.211Z,11.13
2023-05-15T17:11:22.737Z,10.50
2023-05-15T17:13:50.920Z,8.97
2023-05-15T17:16:19.118Z,8.60
2023-05-15T17:18:47.365Z,9.17
2023-05-15T17:21:15.573Z,9.87
2023-05-15T17:23:43.723Z,9.13
2023-05-15T17:26:11.918Z,9.20
2023-05-15T17:28:41.510Z,8.70
2023-05-15T17:31:10.629Z,9.83
2023-05-15T17:33:38.814Z,11.00
2023-05-15T17:36:07.094Z,13.37
2023-05-15T17:38:35.281Z,15.87
2023-05-15T17:41:03.443Z,18.40
2023-05-15T17:43:31.655Z,17.67
2023-05-15T17:46:01.251Z,15.70
2023-05-15T17:48:29.538Z,16.80
2023-05-15T17:50:57.723Z,17.10
2023-05-15T17:53:25.878Z,17.10
2023-05-15T17:55:54.073Z,16.50
2023-05-15T17:58:22.265Z,17.53
2023-05-15T18:00:50.611Z,15.93
2023-05-15T18:03:20.248Z,15.53
2023-05-15T18:05:48.733Z,16.20
2023-05-15T18:08:16.978Z,15.43
2023-05-15T18:10:45.287Z,15.80
2023-05-15T18:13:13.458Z,16.70
2023-05-15T18:15:41.646Z,17.10
2023-05-15T18:18:09.870Z,16.93
2023-05-15T18:20:39.659Z,17.07
2023-05-15T18:23:07.831Z,16.77
2023-05-15T18:25:36.943Z,18.57
2023-05-15T18:28:05.377Z,17.63
2023-05-15T18:30:33.594Z,16.90
2023-05-15T18:33:01.860Z,17.43
2023-05-15T18:35:30.086Z,16.83
2023-05-15T18:37:59.603Z,16.97
2023-05-15T18:40:27.747Z,17.00
2023-05-15T18:42:56.653Z,17.10
2023-05-15T18:45:25.375Z,16.97
2023-05-15T18:47:54.996Z,15.33
2023-05-15T18:50:24.895Z,15.97
2023-05-15T18:52:53.154Z,16.27
2023-05-15T18:55:22.936Z,17.07
2023-05-15T18:57:51.637Z,15.67
2023-05-15T19:00:34.019Z,15.50
2023-05-15T19:03:06.559Z,14.17
2023-05-15T19:05:34.905Z,14.50
2023-05-15T19:08:03.228Z,14.33
2023-05-15T19:10:32.865Z,14.23
2023-05-15T19:13:01.234Z,13.03
2023-05-15T19:15:29.415Z,13.43
2023-05-15T19:17:57.633Z,13.00
2023-05-15T19:20:26.584Z,11.90
2023-05-15T19:22:54.909Z,13.47
2023-05-15T19:25:23.190Z,12.67
2023-05-15T19:27:52.826Z,12.40
2023-05-15T19:30:21.113Z,11.83
2023-05-15T19:32:49.315Z,11.37
2023-05-15T19:35:17.590Z,12.00
2023-05-15T19:37:46.143Z,11.70
2023-05-15T19:40:14.641Z,11.87
2023-05-15T19:42:42.809Z,11.77
2023-05-15T19:45:12.887Z,11.07
2023-05-15T19:47:42.403Z,11.47
2023-05-15T19:50:11.339Z,11.77
2023-05-15T19:52:39.802Z,11.03
2023-05-15T19:55:08.232Z,12.17
2023-05-15T19:57:37.133Z,12.43
2023-05-15T20:00:05.791Z,11.90
2023-05-15T20:02:35.453Z,12.13
2023-05-15T20:05:04.781Z,11.30
2023-05-15T20:07:32.950Z,11.20
2023-05-15T20:10:01.131Z,11.77
2023-05-15T20:12:29.280Z,11.00
2023-05-15T20:14:57.490Z,12.23
2023-05-15T20:17:25.708Z,11.40
2023-05-15T20:19:58.038Z,12.00
2023-05-15T20:22:26.418Z,12.20
2023-05-15T20:24:54.604Z,12.33
2023-05-15T20:27:22.813Z,12.17
2023-05-15T20:29:51.006Z,12.00
2023-05-15T20:32:19.233Z,11.10
2023-05-15T20:34:47.615Z,10.80
2023-05-15T20:37:17.332Z,10.70
2023-05-15T20:39:45.541Z,8.20
2023-05-15T20:42:13.684Z,8.53
2023-05-15T20:44:41.867Z,8.53
2023-05-15T20:47:10.549Z,8.07
2023-05-15T20:49:38.784Z,7.63
2023-05-15T20:52:07.251Z,7.23
2023-05-15T20:54:36.885Z,6.23
2023-05-15T20:57:05.283Z,6.40
2023-05-15T20:59:33.878Z,5.03
2023-05-15T21:02:02.148Z,4.70
2023-05-15T21:04:30.739Z,4.53
2023-05-15T21:06:58.951Z,4.87
2023-05-15T21:09:27.169Z,4.00
2023-05-15T21:11:56.741Z,4.43
2023-05-15T21:14:24.883Z,4.60
2023-05-15T21:16:53.228Z,5.10
2023-05-15T21:19:21.582Z,5.40
2023-05-15T21:21:49.928Z,5.67
2023-05-15T21:24:18.188Z,5.10
2023-05-15T21:26:46.837Z,5.90
2023-05-15T21:29:16.340Z,5.73
2023-05-15T21:31:44.632Z,5.50
2023-05-15T21:34:12.841Z,5.67
2023-05-15T21:36:41.012Z,6.37
2023-05-15T21:39:09.376Z,5.77
2023-05-15T21:41:37.576Z,5.77
2023-05-15T21:44:05.819Z,5.53
2023-05-15T21:46:35.359Z,5.60
2023-05-15T21:49:03.892Z,5.73
2023-05-15T21:51:32.076Z,5.90
2023-05-15T21:54:00.255Z,6.10
2023-05-15T21:56:28.418Z,6.20
2023-05-15T21:58:56.646Z,5.80
2023-05-15T22:01:25.018Z,5.47
2023-05-15T22:03:54.639Z,5.97
2023-05-15T22:06:22.996Z,5.57
2023-05-15T22:08:51.187Z,5.30
2023-05-15T22:11:19.659Z,5.30
2023-05-15T22:13:47.858Z,5.80
2023-05-15T22:16:16.113Z,4.93
2023-05-15T22:18:45.813Z,5.03
2023-05-15T22:21:15.403Z,5.07
2023-05-15T22:23:43.608Z,4.47
2023-05-15T22:26:11.806Z,5.00
2023-05-15T22:28:39.977Z,4.90
2023-05-15T22:31:08.242Z,4.83
2023-05-15T22:33:36.765Z,5.10
2023-05-15T22:36:05.036Z,5.07
2023-05-15T22:38:34.550Z,5.10
2023-05-15T22:41:02.724Z,5.00
2023-05-15T22:43:31.385Z,5.47
2023-05-15T22:45:59.684Z,4.80
2023-05-15T22:48:27.940Z,5.03
2023-05-15T22:50:56.223Z,5.30
2023-05-15T22:53:24.367Z,5.00
2023-05-15T22:55:53.869Z,5.67
2023-05-15T22:58:22.032Z,5.30
2023-05-15T23:00:50.206Z,5.47
2023-05-15T23:03:18.483Z,6.00
2023-05-15T23:05:46.782Z,4.60
2023-05-15T23:08:14.966Z,4.97
2023-05-15T23:10:43.153Z,5.00
2023-05-15T23:13:12.678Z,5.10
2023-05-15T23:15:41.059Z,5.87
2023-05-15T23:18:09.350Z,5.67
2023-05-15T23:20:37.583Z,6.00
2023-05-15T23:23:05.746Z,6.20
2023-05-15T23:25:34.000Z,5.27
2023-05-15T23:28:02.149Z,6.00
2023-05-15T23:30:31.739Z,6.17
2023-05-15T23:32:59.951Z,6.63
2023-05-15T23:35:28.258Z,5.70
2023-05-15T23:37:56.394Z,6.10
2023-05-15T23:40:24.731Z,6.07
2023-05-15T23:42:53.157Z,5.90
2023-05-15T23:45:21.355Z,6.17
2023-05-15T23:47:50.903Z,6.23
2023-05-15T23:50:21.024Z,5.93
2023-05-15T23:52:49.197Z,5.60
2023-05-15T23:55:17.434Z,4.97
2023-05-15T23:57:46.868Z,5.23
